KFDR/FDR METAR and TAF weather

Enter ICAO airport designator
Station Type Date Time Source
KFDR METAR 2020/11/28 19:53 UTC NOAA

KFDR 281953Z AUTO 36007KT 7SM -RA BKN065 OVC080 07/04 A3014 RMK AO2 SLP205 P0004 T00670039


Station Type Date Time Source
KFDR Decoded METAR 2020/11/28 19:53 UTC NOAA

FREDERICK MUNICIPAL AIRPORT, OK, United States (KFDR) 34-21N 98-59W 377M
Nov 28, 2020 - 02:53 PM EST / 2020.11.28 1953 UTC
Wind: from the N (360 degrees) at 8 MPH (7 KT):0
Visibility: 7 mile(s):0
Sky conditions: overcast
Weather: light rain
Precipitation last hour: 0.04 inches
Temperature: 44.1 F (6.7 C)
Dew Point: 39.0 F (3.9 C)
Relative Humidity: 82%
Pressure (altimeter): 30.14 in. Hg (1020 hPa)
ob: KFDR 281953Z AUTO 36007KT 7SM -RA BKN065 OVC080 07/04 A3014 RMK AO2 SLP205 P0004 T00670039
cycle: 20

Station Type Date Time Source
KFDR TAF UTC NOAA

Error!

Example: see airport list